Time;durP1;ratioP1;P1;durP2;ratioP2;P2;SDS_P1;SDS_P2;PMS_P1;PMS_P2;Temp;Humidity;BMP_temperature;BMP_pressure;BME280_temperature;BME280_humidity;BME280_pressure;Samples;Min_cycle;Max_cycle;Signal;HPM_P1;HPM_P2
2022/06/02 00:00:53;;;;;;;3.87;1.80;;;13.50;93.10;;;;;;10483118;28;20215;-71
2022/06/02 00:06:40;;;;;;;5.47;2.33;;;13.40;94.70;;;;;;10493416;28;20224;-70
2022/06/02 00:12:05;;;;;;;5.93;2.00;;;13.40;95.80;;;;;;10432754;28;20215;-70
2022/06/02 00:17:22;;;;;;;1.60;1.50;;;13.30;96.90;;;;;;10476121;28;20295;-71
2022/06/02 00:22:41;;;;;;;1.90;1.77;;;13.30;97.50;;;;;;10466414;28;20231;-70
2022/06/02 00:28:01;;;;;;;2.03;1.70;;;13.30;98.10;;;;;;10478364;28;20591;-70
2022/06/02 00:33:16;;;;;;;1.97;1.73;;;13.20;99.30;;;;;;10479686;28;20257;-70
2022/06/02 00:38:34;;;;;;;3.37;1.60;;;13.20;99.70;;;;;;10466027;28;20238;-70
2022/06/02 00:43:54;;;;;;;1.97;1.80;;;13.10;99.90;;;;;;10481951;28;20251;-71
2022/06/02 00:49:20;;;;;;;2.67;1.70;;;13.10;99.90;;;;;;10490327;28;20631;-70
2022/06/02 01:00:17;;;;;;;2.13;1.50;;;12.90;99.90;;;;;;10478047;28;20302;-70
2022/06/02 01:05:29;;;;;;;2.83;1.70;;;12.90;99.90;;;;;;10465818;28;20277;-70
2022/06/02 01:10:55;;;;;;;3.77;2.03;;;12.80;99.90;;;;;;10496374;28;20304;-70
2022/06/02 01:16:07;;;;;;;3.20;1.87;;;12.80;99.90;;;;;;10472549;28;20215;-71
2022/06/02 01:21:33;;;;;;;3.80;1.57;;;12.70;99.90;;;;;;10474286;28;20215;-70
2022/06/02 01:27:06;;;;;;;3.00;2.13;;;12.60;99.90;;;;;;10476549;28;20224;-69
2022/06/02 01:32:20;;;;;;;3.27;2.43;;;12.60;99.90;;;;;;10478467;28;20223;-69
2022/06/02 01:37:27;;;;;;;3.97;1.90;;;12.50;99.90;;;;;;10461804;28;20246;-69
2022/06/02 01:42:50;;;;;;;1.93;1.40;;;12.50;99.90;;;;;;10450056;28;20283;-70
2022/06/02 01:48:10;;;;;;;2.63;1.90;;;12.50;99.90;;;;;;10475120;28;20242;-70
2022/06/02 01:53:42;;;;;;;2.60;1.97;;;12.40;99.90;;;;;;10469752;28;20226;-70
2022/06/02 01:59:00;;;;;;;2.90;1.97;;;12.30;99.90;;;;;;10457898;28;20247;-70
2022/06/02 02:04:37;;;;;;;3.13;1.77;;;12.30;99.90;;;;;;10478053;28;20219;-70
2022/06/02 02:09:52;;;;;;;2.77;1.90;;;12.20;99.90;;;;;;10375919;28;20253;-69
2022/06/02 02:15:15;;;;;;;2.67;1.73;;;12.10;99.90;;;;;;10474028;28;20307;-70
2022/06/02 02:20:42;;;;;;;2.57;1.73;;;12.00;99.90;;;;;;10462471;28;20222;-69
2022/06/02 02:26:03;;;;;;;3.30;1.80;;;11.90;99.90;;;;;;10466855;28;20252;-70
2022/06/02 02:31:10;;;;;;;2.00;1.80;;;11.90;99.90;;;;;;10475929;28;20223;-69
2022/06/02 02:36:33;;;;;;;3.80;2.03;;;11.80;99.90;;;;;;10485383;28;20679;-69
2022/06/02 02:41:46;;;;;;;2.20;2.00;;;11.60;99.90;;;;;;10466594;28;20301;-69
2022/06/02 02:47:01;;;;;;;2.57;1.80;;;11.60;99.90;;;;;;10472924;28;20311;-71
2022/06/02 02:52:16;;;;;;;1.93;1.77;;;11.50;99.90;;;;;;10475462;28;20294;-70
2022/06/02 02:57:35;;;;;;;2.83;2.07;;;11.40;99.90;;;;;;10477483;28;20216;-71
2022/06/02 03:02:51;;;;;;;3.00;2.50;;;11.20;99.90;;;;;;10478748;28;20793;-70
2022/06/02 03:07:52;;;;;;;4.97;2.23;;;11.20;99.90;;;;;;10472770;28;20231;-69
2022/06/02 03:13:22;;;;;;;3.40;2.70;;;11.20;99.90;;;;;;10472547;28;20815;-69
2022/06/02 03:18:28;;;;;;;3.67;2.47;;;11.00;99.90;;;;;;10426591;28;20714;-69
2022/06/02 03:24:02;;;;;;;3.10;2.20;;;11.00;99.90;;;;;;10490385;28;20629;-70
2022/06/02 03:29:05;;;;;;;2.40;2.20;;;11.00;99.90;;;;;;10482947;28;20230;-70
2022/06/02 03:34:12;;;;;;;4.50;2.60;;;11.00;99.90;;;;;;10469736;28;20223;-70
2022/06/02 03:39:44;;;;;;;3.17;2.80;;;10.90;99.90;;;;;;10475017;28;20215;-70
2022/06/02 03:44:54;;;;;;;3.40;2.50;;;10.90;99.90;;;;;;10467787;28;20223;-69
2022/06/02 03:50:15;;;;;;;4.37;2.80;;;11.00;99.90;;;;;;10477005;28;20212;-70
2022/06/02 03:55:42;;;;;;;4.03;3.20;;;11.00;99.90;;;;;;10470340;28;20800;-70
2022/06/02 04:01:08;;;;;;;5.70;2.90;;;11.10;99.90;;;;;;10467203;28;20215;-70
2022/06/02 04:06:42;;;;;;;3.37;2.97;;;11.30;99.90;;;;;;10457159;28;20736;-70
2022/06/02 04:17:42;;;;;;;4.23;2.33;;;11.70;99.90;;;;;;10467046;28;20215;-70
2022/06/02 04:23:24;;;;;;;5.93;4.43;;;11.80;99.90;;;;;;10488437;28;20218;-70
2022/06/02 04:28:49;;;;;;;5.47;4.47;;;12.00;99.90;;;;;;10468563;28;20258;-70
2022/06/02 04:34:21;;;;;;;6.97;4.70;;;12.10;99.90;;;;;;10477606;28;20220;-69
2022/06/02 04:39:38;;;;;;;5.50;2.90;;;12.40;99.90;;;;;;10465621;28;20310;-69
2022/06/02 04:44:57;;;;;;;6.10;3.03;;;13.30;99.90;;;;;;10496975;28;20318;-70
2022/06/02 04:50:20;;;;;;;4.50;2.90;;;13.40;99.90;;;;;;10492390;28;20233;-70
2022/06/02 04:55:33;;;;;;;4.87;2.50;;;13.30;99.90;;;;;;10457307;28;20674;-69
2022/06/02 05:01:05;;;;;;;3.40;2.57;;;13.50;99.90;;;;;;10479459;28;20222;-70
2022/06/02 05:06:29;;;;;;;2.70;2.50;;;15.30;99.90;;;;;;10478293;28;20254;-69
2022/06/02 05:11:58;;;;;;;6.53;2.87;;;18.80;96.00;;;;;;10466810;28;20254;-69
2022/06/02 05:17:14;;;;;;;4.20;2.50;;;20.70;84.10;;;;;;10471360;28;20232;-69
2022/06/02 05:22:37;;;;;;;2.93;1.80;;;22.20;71.20;;;;;;10472158;28;20219;-70
2022/06/02 05:28:05;;;;;;;3.17;2.17;;;23.60;61.40;;;;;;10467991;28;20227;-69
2022/06/02 05:33:09;;;;;;;4.10;1.80;;;24.40;56.10;;;;;;10471612;28;20306;-70
2022/06/02 05:38:36;;;;;;;2.83;2.20;;;25.60;53.80;;;;;;10479399;28;20235;-70
2022/06/02 05:43:57;;;;;;;4.57;2.57;;;25.90;50.80;;;;;;10462298;28;20710;-69
2022/06/02 05:49:28;;;;;;;6.53;2.97;;;25.70;50.20;;;;;;10485130;28;20227;-71
2022/06/02 05:54:47;;;;;;;9.73;3.17;;;26.00;50.60;;;;;;10468800;28;20215;-70
2022/06/02 06:00:05;;;;;;;3.13;2.50;;;26.70;48.60;;;;;;10470640;28;20272;-71
2022/06/02 06:05:27;;;;;;;2.80;2.33;;;28.60;44.80;;;;;;10469207;28;20215;-70
2022/06/02 06:11:02;;;;;;;4.63;2.23;;;27.20;45.10;;;;;;10470405;28;20222;-69
2022/06/02 06:16:24;;;;;;;4.77;3.37;;;26.30;47.40;;;;;;10475677;28;20239;-70
2022/06/02 06:21:33;;;;;;;8.60;5.00;;;27.30;45.00;;;;;;10456773;28;20303;-69
2022/06/02 06:26:57;;;;;;;7.53;4.23;;;27.30;44.40;;;;;;10489662;28;20276;-70
2022/06/02 06:32:20;;;;;;;4.07;3.10;;;27.80;43.50;;;;;;10468578;28;20299;-69
2022/06/02 06:37:57;;;;;;;8.20;4.00;;;28.90;42.70;;;;;;10460337;28;20317;-69
2022/06/02 06:43:22;;;;;;;6.43;4.40;;;29.80;40.50;;;;;;10466619;28;20712;-69
2022/06/02 06:48:30;;;;;;;5.80;3.97;;;30.20;39.80;;;;;;10460437;28;20310;-69
2022/06/02 06:53:51;;;;;;;8.40;5.67;;;31.00;38.10;;;;;;10452605;28;20231;-70
2022/06/02 06:59:20;;;;;;;5.37;4.30;;;29.70;39.10;;;;;;10448869;28;20223;-69
2022/06/02 07:04:45;;;;;;;6.90;6.23;;;29.90;40.10;;;;;;10454453;28;20212;-70
2022/06/02 07:10:07;;;;;;;9.37;6.70;;;29.40;39.40;;;;;;10462557;28;20712;-71
2022/06/02 07:15:30;;;;;;;8.70;5.57;;;28.40;40.60;;;;;;10464216;28;20310;-70
2022/06/02 07:21:00;;;;;;;4.17;3.57;;;29.20;40.60;;;;;;10468082;28;20219;-70
2022/06/02 07:26:34;;;;;;;7.47;4.90;;;30.30;38.50;;;;;;10473027;28;20221;-71
2022/06/02 07:31:50;;;;;;;6.27;4.30;;;29.50;39.60;;;;;;10449758;28;20212;-70
2022/06/02 07:37:03;;;;;;;2.57;2.30;;;29.10;38.20;;;;;;10469142;28;20215;-70
2022/06/02 07:42:17;;;;;;;5.50;4.50;;;30.10;39.20;;;;;;10464621;28;20223;-71
2022/06/02 07:47:39;;;;;;;4.53;4.10;;;29.60;37.20;;;;;;10457433;28;20963;-73
2022/06/02 07:52:53;;;;;;;9.70;4.47;;;29.30;37.60;;;;;;10453344;28;20211;-72
2022/06/02 07:58:23;;;;;;;4.90;3.77;;;31.40;35.30;;;;;;10476081;28;20238;-71
2022/06/02 08:03:33;;;;;;;3.70;3.40;;;31.00;34.80;;;;;;10459432;28;20912;-70
2022/06/02 08:08:46;;;;;;;4.40;4.00;;;31.00;35.10;;;;;;10466262;28;20254;-69
2022/06/02 08:13:52;;;;;;;5.43;3.67;;;29.90;35.70;;;;;;10475770;28;20242;-70
2022/06/02 08:19:13;;;;;;;3.57;2.60;;;30.90;35.00;;;;;;10475802;28;20220;-69
2022/06/02 08:24:38;;;;;;;3.23;2.70;;;31.30;34.00;;;;;;10491531;28;20229;-69
2022/06/02 08:29:48;;;;;;;3.37;3.00;;;31.40;34.80;;;;;;10488085;28;20414;-70
2022/06/02 08:35:28;;;;;;;5.57;3.40;;;30.00;35.20;;;;;;10496025;28;20270;-68
2022/06/02 08:40:35;;;;;;;5.10;3.13;;;30.20;35.00;;;;;;10462638;28;20220;-70
2022/06/02 08:45:35;;;;;;;3.30;2.70;;;30.20;35.90;;;;;;10465281;28;20224;-70
2022/06/02 08:50:59;;;;;;;5.18;3.30;;;30.10;34.30;;;;;;10464326;28;20424;-71
2022/06/02 08:56:06;;;;;;;3.73;3.43;;;30.00;34.60;;;;;;10472765;28;20440;-70
2022/06/02 09:01:31;;;;;;;3.97;2.80;;;28.00;36.90;;;;;;10460077;28;20768;-73
2022/06/02 09:06:59;;;;;;;6.77;3.10;;;29.90;35.80;;;;;;10454758;28;20236;-71
2022/06/02 09:12:39;;;;;;;5.10;2.67;;;32.40;31.50;;;;;;10475214;28;20298;-71
2022/06/02 09:18:09;;;;;;;2.70;2.23;;;33.10;30.20;;;;;;10461483;28;20218;-70
2022/06/02 09:23:16;;;;;;;3.57;2.60;;;33.30;30.00;;;;;;10480862;28;20227;-69
2022/06/02 09:28:35;;;;;;;3.17;2.60;;;31.80;31.70;;;;;;10484794;28;20868;-70
2022/06/02 09:34:10;;;;;;;5.43;2.73;;;30.10;33.50;;;;;;10460277;28;20226;-71
2022/06/02 09:39:26;;;;;;;4.50;1.90;;;28.60;35.70;;;;;;10473716;28;20307;-71
2022/06/02 09:44:50;;;;;;;2.30;2.17;;;29.00;35.50;;;;;;10466621;28;20565;-71
2022/06/02 09:50:02;;;;;;;4.47;2.20;;;32.10;32.60;;;;;;10474246;28;20247;-71
2022/06/02 09:55:30;;;;;;;4.73;3.03;;;34.10;30.50;;;;;;10478539;28;20749;-70
2022/06/02 10:00:44;;;;;;;4.10;2.63;;;33.90;29.20;;;;;;10465520;28;20226;-70
2022/06/02 10:06:03;;;;;;;4.47;3.00;;;32.90;31.00;;;;;;10471842;28;20227;-70
2022/06/02 10:11:29;;;;;;;3.07;2.50;;;32.00;30.80;;;;;;10474380;28;20265;-71
2022/06/02 10:16:54;;;;;;;3.70;3.13;;;32.20;32.10;;;;;;10455002;28;20252;-70
2022/06/02 10:22:12;;;;;;;3.50;3.20;;;31.00;32.20;;;;;;10475206;28;20294;-71
2022/06/02 10:27:33;;;;;;;2.43;2.10;;;30.80;33.00;;;;;;10469199;28;20231;-71
2022/06/02 10:32:51;;;;;;;3.60;3.10;;;31.70;31.90;;;;;;10477525;28;20341;-71
2022/06/02 10:38:27;;;;;;;3.40;2.30;;;32.20;31.20;;;;;;10488884;28;20218;-71
2022/06/02 10:44:05;;;;;;;2.27;2.03;;;30.50;33.60;;;;;;10465367;28;20230;-70
2022/06/02 10:49:33;;;;;;;2.60;1.87;;;30.60;33.60;;;;;;10470383;28;20223;-72
2022/06/02 10:55:22;;;;;;;2.30;2.10;;;29.60;34.80;;;;;;10473497;28;20230;-69
2022/06/02 11:00:32;;;;;;;6.27;3.00;;;29.40;35.00;;;;;;10440757;28;20267;-72
2022/06/02 11:06:03;;;;;;;2.87;2.37;;;30.10;34.00;;;;;;10474619;28;20219;-71
2022/06/02 11:11:41;;;;;;;3.03;2.70;;;32.20;31.40;;;;;;10460872;28;20599;-71
2022/06/02 11:17:11;;;;;;;3.90;2.53;;;30.10;32.20;;;;;;10454993;28;20265;-69
2022/06/02 11:22:15;;;;;;;5.37;2.67;;;29.60;34.30;;;;;;10461557;28;20220;-69
2022/06/02 11:27:45;;;;;;;3.43;2.73;;;29.30;34.80;;;;;;10456255;28;20307;-70
2022/06/02 11:33:20;;;;;;;7.50;3.30;;;30.00;34.10;;;;;;10463817;28;20212;-71
2022/06/02 11:38:58;;;;;;;6.13;2.90;;;30.40;32.60;;;;;;10457167;28;20595;-71
2022/06/02 11:44:14;;;;;;;3.20;2.90;;;28.50;35.80;;;;;;10482761;28;20237;-68
2022/06/02 11:49:32;;;;;;;5.23;2.13;;;26.70;38.40;;;;;;10458782;28;20215;-69
2022/06/02 11:54:51;;;;;;;3.13;2.07;;;26.70;38.70;;;;;;10454223;28;20314;-68
2022/06/02 12:00:17;;;;;;;3.83;2.03;;;26.70;37.80;;;;;;10471812;28;20223;-70
2022/06/02 12:05:56;;;;;;;2.20;1.87;;;26.70;38.10;;;;;;10467475;28;20290;-69
2022/06/02 12:11:22;;;;;;;4.23;2.10;;;26.20;38.30;;;;;;10460833;28;20737;-69
2022/06/02 12:16:30;;;;;;;3.60;1.80;;;25.70;37.50;;;;;;10461393;28;20244;-70
2022/06/02 12:21:49;;;;;;;2.90;1.70;;;25.60;37.70;;;;;;10459242;28;20216;-71
2022/06/02 12:27:16;;;;;;;2.60;1.67;;;25.70;38.20;;;;;;10472002;28;20231;-70
2022/06/02 12:32:34;;;;;;;1.90;1.63;;;24.80;39.70;;;;;;10464315;28;20314;-70
2022/06/02 12:38:16;;;;;;;2.30;1.57;;;24.60;39.40;;;;;;10462783;28;20223;-70
2022/06/02 12:43:34;;;;;;;4.43;1.87;;;24.50;39.60;;;;;;10459166;28;20687;-70
2022/06/02 12:49:12;;;;;;;3.57;1.40;;;24.30;39.30;;;;;;10467977;28;20311;-68
2022/06/02 12:54:37;;;;;;;2.07;1.40;;;24.80;38.40;;;;;;10452395;28;20326;-70
2022/06/02 12:59:50;;;;;;;1.20;1.17;;;24.80;38.70;;;;;;10461131;28;20227;-70
2022/06/02 13:05:10;;;;;;;1.47;1.20;;;24.50;38.50;;;;;;10459860;28;20224;-70
2022/06/02 13:10:36;;;;;;;3.53;1.77;;;24.80;38.40;;;;;;10470598;28;20207;-69
2022/06/02 13:15:58;;;;;;;4.10;1.30;;;24.30;38.20;;;;;;10463455;28;20230;-70
2022/06/02 13:21:41;;;;;;;2.03;0.90;;;24.00;37.90;;;;;;10457072;28;20684;-70
2022/06/02 13:27:19;;;;;;;4.93;1.20;;;24.30;38.70;;;;;;10452851;28;20636;-70
2022/06/02 13:32:56;;;;;;;2.27;1.00;;;24.20;38.80;;;;;;10453138;28;20222;-71
2022/06/02 13:38:18;;;;;;;3.50;0.90;;;23.90;38.80;;;;;;10467193;28;20223;-70
2022/06/02 13:43:37;;;;;;;1.00;0.83;;;23.70;39.50;;;;;;10434842;28;20309;-72
2022/06/02 13:49:15;;;;;;;2.00;0.90;;;23.50;40.00;;;;;;10477621;28;20215;-70
2022/06/02 14:00:02;;;;;;;1.80;1.10;;;23.70;38.60;;;;;;10471725;28;20298;-70
2022/06/02 14:05:43;;;;;;;2.97;0.90;;;23.80;38.30;;;;;;10463087;28;20753;-70
2022/06/02 14:11:14;;;;;;;2.40;1.20;;;23.90;39.80;;;;;;10461335;28;20215;-71
2022/06/02 14:16:35;;;;;;;3.80;1.13;;;23.60;40.60;;;;;;10466970;28;20629;-70
2022/06/02 14:22:06;;;;;;;1.93;1.00;;;23.50;41.20;;;;;;10465174;28;20216;-70
2022/06/02 14:27:46;;;;;;;2.63;0.87;;;23.50;40.70;;;;;;10472905;28;20303;-71
2022/06/02 14:33:21;;;;;;;2.47;1.00;;;23.60;41.40;;;;;;10453860;28;20247;-71
2022/06/02 14:38:21;;;;;;;0.67;0.67;;;23.50;38.30;;;;;;10438523;28;20239;-70
2022/06/02 14:44:00;;;;;;;1.17;0.70;;;23.30;37.50;;;;;;10467991;28;20270;-70
2022/06/02 14:49:22;;;;;;;2.00;0.87;;;23.30;37.80;;;;;;10470136;28;20283;-70
2022/06/02 14:54:40;;;;;;;3.13;0.80;;;23.30;36.90;;;;;;10475893;28;20220;-70
2022/06/02 15:00:06;;;;;;;2.30;1.00;;;23.40;37.70;;;;;;10469891;28;20588;-70
2022/06/02 15:05:15;;;;;;;2.07;0.87;;;23.50;38.20;;;;;;10468268;28;20671;-71
2022/06/02 15:10:41;;;;;;;4.53;1.07;;;23.60;38.30;;;;;;10465939;28;20803;-70
2022/06/02 15:15:53;;;;;;;0.90;0.90;;;23.60;38.50;;;;;;10473679;28;20215;-69
2022/06/02 15:21:06;;;;;;;0.93;0.80;;;23.80;38.80;;;;;;10470382;28;20219;-70
2022/06/02 15:26:10;;;;;;;1.10;0.67;;;23.50;38.80;;;;;;10469969;28;20608;-70
2022/06/02 15:31:25;;;;;;;2.47;1.07;;;23.40;39.60;;;;;;10473372;28;20243;-70
2022/06/02 15:36:38;;;;;;;2.13;1.07;;;23.10;40.90;;;;;;10459976;28;20223;-70
2022/06/02 15:41:47;;;;;;;1.43;1.13;;;23.10;41.10;;;;;;10466796;28;20579;-70
2022/06/02 15:47:25;;;;;;;1.33;0.70;;;23.20;41.40;;;;;;10463481;28;20589;-70
2022/06/02 15:53:01;;;;;;;3.27;1.10;;;23.20;39.80;;;;;;10459071;28;20992;-69
2022/06/02 15:58:28;;;;;;;1.40;1.00;;;23.20;39.50;;;;;;10468126;28;20220;-69
2022/06/02 16:03:36;;;;;;;2.70;1.00;;;23.10;39.90;;;;;;10443222;28;20227;-72
2022/06/02 16:15:05;;;;;;;2.27;0.90;;;22.90;42.30;;;;;;10465256;28;21113;-70
2022/06/02 16:20:32;;;;;;;1.00;0.90;;;22.90;41.60;;;;;;10466930;28;20219;-70
2022/06/02 16:25:48;;;;;;;1.20;0.90;;;22.80;41.80;;;;;;10459369;28;20219;-70
2022/06/02 16:31:15;;;;;;;1.23;0.90;;;22.70;41.80;;;;;;10492873;28;20214;-69
2022/06/02 16:36:37;;;;;;;3.33;1.40;;;22.60;41.80;;;;;;10472677;28;20221;-71
2022/06/02 16:42:07;;;;;;;1.10;0.80;;;22.70;41.80;;;;;;10454325;28;20209;-71
2022/06/02 16:47:39;;;;;;;1.10;0.70;;;22.70;41.40;;;;;;10470205;28;20341;-70
2022/06/02 16:53:03;;;;;;;1.00;0.90;;;22.60;41.40;;;;;;10465184;28;20220;-70
2022/06/02 16:58:39;;;;;;;3.00;1.30;;;22.50;41.80;;;;;;10471199;28;20295;-70
2022/06/02 17:04:10;;;;;;;1.33;0.90;;;22.50;41.70;;;;;;10462193;28;20234;-71
2022/06/02 17:09:56;;;;;;;1.17;0.70;;;22.50;41.40;;;;;;10475773;28;20623;-70
2022/06/02 17:15:27;;;;;;;1.27;0.90;;;22.40;40.20;;;;;;10469830;28;20212;-70
2022/06/02 17:20:49;;;;;;;2.13;1.03;;;22.20;40.10;;;;;;10476831;28;20740;-70
2022/06/02 17:25:53;;;;;;;1.47;1.00;;;22.20;40.50;;;;;;10473560;28;20604;-70
2022/06/02 17:30:59;;;;;;;1.20;0.83;;;22.10;40.60;;;;;;10476829;28;20220;-70
2022/06/02 17:36:21;;;;;;;4.67;1.00;;;22.00;39.70;;;;;;10474881;28;20247;-70
2022/06/02 17:41:25;;;;;;;1.07;0.70;;;22.00;39.60;;;;;;10453896;28;20216;-70
2022/06/02 17:46:59;;;;;;;1.93;0.70;;;21.90;39.00;;;;;;10453863;28;20701;-70
2022/06/02 17:52:24;;;;;;;3.90;1.07;;;21.90;39.40;;;;;;10492801;28;20780;-70
2022/06/02 17:57:43;;;;;;;1.97;1.10;;;21.80;39.50;;;;;;10463034;28;20239;-70
2022/06/02 18:02:56;;;;;;;0.83;0.80;;;21.80;39.60;;;;;;10468799;28;20230;-70
2022/06/02 18:08:11;;;;;;;0.70;0.70;;;21.70;39.40;;;;;;10471684;28;20219;-70
2022/06/02 18:13:39;;;;;;;1.60;1.10;;;21.60;39.40;;;;;;10463536;28;20212;-71
2022/06/02 18:19:04;;;;;;;2.43;1.07;;;21.60;39.50;;;;;;10466182;28;20700;-70
2022/06/02 18:24:39;;;;;;;2.63;1.00;;;21.60;39.80;;;;;;10468485;28;20212;-70
2022/06/02 18:30:20;;;;;;;1.77;0.80;;;21.50;38.90;;;;;;10465866;28;20223;-71
2022/06/02 18:35:48;;;;;;;1.40;1.10;;;21.40;39.40;;;;;;10462685;28;20612;-70
2022/06/02 18:41:26;;;;;;;1.47;0.90;;;21.30;39.50;;;;;;10481600;28;20709;-70
2022/06/02 18:47:00;;;;;;;1.57;1.10;;;21.20;39.30;;;;;;10460318;28;20941;-71
2022/06/02 18:52:16;;;;;;;1.73;0.70;;;21.10;39.80;;;;;;10467457;28;20230;-69
2022/06/02 18:57:59;;;;;;;4.17;1.07;;;21.00;41.00;;;;;;10462981;28;20805;-71
2022/06/02 19:03:17;;;;;;;1.47;1.00;;;20.90;42.30;;;;;;10470591;28;20582;-71
2022/06/02 19:14:14;;;;;;;0.70;0.70;;;20.60;45.70;;;;;;10455029;28;20243;-70
2022/06/02 19:19:31;;;;;;;3.13;1.40;;;20.50;45.50;;;;;;10470053;28;20256;-70
2022/06/02 19:25:02;;;;;;;4.00;1.43;;;20.30;46.60;;;;;;10476355;28;20216;-69
2022/06/02 19:30:24;;;;;;;2.40;1.20;;;20.20;46.90;;;;;;10466560;28;20226;-72
2022/06/02 19:35:43;;;;;;;1.60;1.03;;;20.10;48.10;;;;;;10455888;28;20222;-70
2022/06/02 19:41:06;;;;;;;3.03;1.10;;;20.00;49.20;;;;;;10456925;28;20356;-70
2022/06/02 19:46:22;;;;;;;2.50;1.13;;;19.90;50.90;;;;;;10457568;28;20238;-70
2022/06/02 19:51:30;;;;;;;3.87;1.37;;;19.70;52.40;;;;;;10453351;28;20224;-70
2022/06/02 19:56:42;;;;;;;1.47;0.90;;;19.60;53.40;;;;;;10475011;28;20733;-70
2022/06/02 20:01:47;;;;;;;2.00;1.07;;;19.50;54.40;;;;;;10470158;28;20227;-72
2022/06/02 20:07:02;;;;;;;1.93;1.20;;;19.40;55.20;;;;;;10467115;28;20242;-72
2022/06/02 20:12:18;;;;;;;2.43;1.77;;;19.30;56.40;;;;;;10462589;28;20250;-71
2022/06/02 20:17:25;;;;;;;4.23;1.93;;;19.30;56.40;;;;;;10475385;28;20694;-71
2022/06/02 20:22:40;;;;;;;4.07;1.67;;;19.20;57.00;;;;;;10465611;28;20222;-70
2022/06/02 20:27:48;;;;;;;2.87;1.57;;;19.10;57.70;;;;;;10473557;28;20245;-70
2022/06/02 20:33:06;;;;;;;1.30;1.20;;;19.00;58.30;;;;;;10471200;28;20243;-71
2022/06/02 20:38:14;;;;;;;1.57;1.47;;;18.90;58.80;;;;;;10474042;28;20360;-70
2022/06/02 20:43:39;;;;;;;2.40;1.27;;;18.70;59.40;;;;;;10479955;28;20340;-70
2022/06/02 20:48:46;;;;;;;3.03;1.50;;;18.60;60.00;;;;;;10467431;28;20303;-70
2022/06/02 20:53:48;;;;;;;1.43;1.27;;;18.50;60.90;;;;;;10466133;28;20222;-69
2022/06/02 20:59:05;;;;;;;2.77;1.20;;;18.50;61.60;;;;;;10472963;28;20250;-70
2022/06/02 21:04:20;;;;;;;2.93;2.40;;;18.40;62.30;;;;;;10474071;28;20254;-72
2022/06/02 21:09:46;;;;;;;3.37;1.63;;;18.30;63.00;;;;;;10471362;28;20231;-70
2022/06/02 21:15:11;;;;;;;5.20;2.30;;;18.10;63.50;;;;;;10473549;28;20301;-73
2022/06/02 21:20:43;;;;;;;7.87;3.40;;;18.10;64.10;;;;;;10463676;28;20234;-72
2022/06/02 21:25:55;;;;;;;6.17;2.90;;;18.00;64.90;;;;;;10452604;28;20288;-72
2022/06/02 21:31:44;;;;;;;6.67;2.70;;;18.00;65.20;;;;;;10460103;28;20253;-71
2022/06/02 21:36:50;;;;;;;5.53;1.90;;;18.00;66.50;;;;;;10342284;28;20734;-72
2022/06/02 21:41:52;;;;;;;3.97;1.90;;;17.90;66.20;;;;;;10474758;28;20222;-73
2022/06/02 21:47:30;;;;;;;6.73;2.70;;;17.80;66.60;;;;;;10472587;28;20252;-72
2022/06/02 21:52:53;;;;;;;3.33;1.50;;;17.80;67.10;;;;;;10456629;28;20701;-72
2022/06/02 21:58:15;;;;;;;3.23;1.80;;;17.70;67.60;;;;;;10474667;28;20713;-72
2022/06/02 22:03:25;;;;;;;1.50;1.40;;;17.60;67.80;;;;;;10477366;28;20318;-72
2022/06/02 22:08:38;;;;;;;8.80;3.53;;;17.50;67.90;;;;;;10454037;28;20239;-71
2022/06/02 22:13:48;;;;;;;10.40;4.37;;;17.60;68.50;;;;;;10468286;28;20296;-72
2022/06/02 22:19:04;;;;;;;9.77;4.47;;;17.70;68.10;;;;;;10454533;28;20215;-72
2022/06/02 22:24:13;;;;;;;1.63;1.50;;;17.60;68.20;;;;;;10475186;28;20650;-71
2022/06/02 22:29:39;;;;;;;5.93;1.70;;;17.50;68.80;;;;;;10479174;28;20234;-71
2022/06/02 22:35:13;;;;;;;3.77;1.60;;;17.30;69.40;;;;;;10472549;28;20309;-72
2022/06/02 22:40:35;;;;;;;3.53;2.17;;;17.20;70.10;;;;;;10470576;28;20235;-71
2022/06/02 22:45:45;;;;;;;4.57;1.83;;;17.10;70.50;;;;;;10463745;28;20250;-72
2022/06/02 22:50:59;;;;;;;2.63;1.63;;;17.00;70.80;;;;;;10468761;28;20223;-71
2022/06/02 22:56:12;;;;;;;3.43;1.40;;;16.90;71.20;;;;;;10474016;28;20233;-71
2022/06/02 23:01:35;;;;;;;4.00;1.80;;;16.70;71.30;;;;;;10474698;28;20238;-71
2022/06/02 23:06:58;;;;;;;3.03;1.60;;;16.60;71.90;;;;;;10470442;28;20239;-70
2022/06/02 23:12:13;;;;;;;6.07;1.90;;;16.50;72.10;;;;;;10468788;28;20252;-72
2022/06/02 23:17:43;;;;;;;7.77;3.10;;;16.30;72.40;;;;;;10463126;28;20223;-72
2022/06/02 23:23:16;;;;;;;7.23;3.07;;;16.30;72.60;;;;;;10471343;28;20343;-72
2022/06/02 23:28:40;;;;;;;13.63;5.30;;;16.20;72.80;;;;;;10472148;28;20227;-72
2022/06/02 23:33:44;;;;;;;12.90;4.57;;;16.10;72.70;;;;;;10465097;28;20755;-71
2022/06/02 23:39:03;;;;;;;8.77;4.30;;;16.10;73.00;;;;;;10474269;28;20226;-70
2022/06/02 23:44:20;;;;;;;3.13;2.20;;;16.10;73.30;;;;;;10478445;28;20218;-72
2022/06/02 23:49:50;;;;;;;6.43;2.87;;;16.00;73.80;;;;;;10470407;28;20223;-72
2022/06/02 23:55:30;;;;;;;9.27;3.90;;;15.90;74.10;;;;;;10476421;28;20306;-71
